sensor_id;sensor_type;location;lat;lon;timestamp;P1;durP1;ratioP1;P2;durP2;ratioP2
1366;SDS011;16877;48.810;9.282;2022-07-22T00:00:51;7.37;;;6.70;;
1366;SDS011;16877;48.810;9.282;2022-07-22T00:03:18;6.90;;;6.30;;
1366;SDS011;16877;48.810;9.282;2022-07-22T00:05:45;6.83;;;6.13;;
1366;SDS011;16877;48.810;9.282;2022-07-22T00:08:12;8.23;;;6.67;;
1366;SDS011;16877;48.810;9.282;2022-07-22T00:10:40;7.30;;;6.50;;
1366;SDS011;16877;48.810;9.282;2022-07-22T00:13:06;6.20;;;5.70;;
1366;SDS011;16877;48.810;9.282;2022-07-22T00:15:33;7.10;;;6.40;;
1366;SDS011;16877;48.810;9.282;2022-07-22T00:18:00;7.57;;;6.90;;
1366;SDS011;16877;48.810;9.282;2022-07-22T00:20:26;7.10;;;6.40;;
1366;SDS011;16877;48.810;9.282;2022-07-22T00:22:53;7.40;;;6.70;;
1366;SDS011;16877;48.810;9.282;2022-07-22T00:25:20;7.83;;;7.13;;
1366;SDS011;16877;48.810;9.282;2022-07-22T00:27:48;7.00;;;6.30;;
1366;SDS011;16877;48.810;9.282;2022-07-22T00:30:15;7.87;;;6.87;;
1366;SDS011;16877;48.810;9.282;2022-07-22T00:32:41;6.63;;;6.00;;
1366;SDS011;16877;48.810;9.282;2022-07-22T00:35:08;6.40;;;5.80;;
1366;SDS011;16877;48.810;9.282;2022-07-22T00:37:35;6.80;;;6.10;;
1366;SDS011;16877;48.810;9.282;2022-07-22T00:40:02;7.03;;;6.40;;
1366;SDS011;16877;48.810;9.282;2022-07-22T00:42:30;7.50;;;6.77;;
1366;SDS011;16877;48.810;9.282;2022-07-22T00:44:58;6.27;;;5.67;;
1366;SDS011;16877;48.810;9.282;2022-07-22T00:47:25;6.50;;;5.90;;
1366;SDS011;16877;48.810;9.282;2022-07-22T00:49:51;6.23;;;5.63;;
1366;SDS011;16877;48.810;9.282;2022-07-22T00:52:18;6.70;;;6.10;;
1366;SDS011;16877;48.810;9.282;2022-07-22T00:54:45;7.20;;;5.83;;
1366;SDS011;16877;48.810;9.282;2022-07-22T00:57:12;7.40;;;6.40;;
1366;SDS011;16877;48.810;9.282;2022-07-22T00:59:39;6.83;;;6.20;;
1366;SDS011;16877;48.810;9.282;2022-07-22T01:02:09;6.43;;;5.87;;
1366;SDS011;16877;48.810;9.282;2022-07-22T01:04:35;6.73;;;6.07;;
1366;SDS011;16877;48.810;9.282;2022-07-22T01:07:02;6.63;;;6.03;;
1366;SDS011;16877;48.810;9.282;2022-07-22T01:09:29;6.70;;;6.10;;
1366;SDS011;16877;48.810;9.282;2022-07-22T01:11:56;7.10;;;6.50;;
1366;SDS011;16877;48.810;9.282;2022-07-22T01:14:23;6.80;;;6.10;;
1366;SDS011;16877;48.810;9.282;2022-07-22T01:16:49;6.43;;;5.80;;
1366;SDS011;16877;48.810;9.282;2022-07-22T01:19:17;6.50;;;5.70;;
1366;SDS011;16877;48.810;9.282;2022-07-22T01:21:45;6.90;;;6.30;;
1366;SDS011;16877;48.810;9.282;2022-07-22T01:24:12;6.60;;;5.93;;
1366;SDS011;16877;48.810;9.282;2022-07-22T01:26:39;6.77;;;6.07;;
1366;SDS011;16877;48.810;9.282;2022-07-22T01:29:06;9.60;;;7.30;;
1366;SDS011;16877;48.810;9.282;2022-07-22T01:31:33;6.67;;;6.07;;
1366;SDS011;16877;48.810;9.282;2022-07-22T01:34:00;7.03;;;6.33;;
1366;SDS011;16877;48.810;9.282;2022-07-22T01:36:27;6.43;;;5.83;;
1366;SDS011;16877;48.810;9.282;2022-07-22T01:38:55;6.50;;;5.77;;
1366;SDS011;16877;48.810;9.282;2022-07-22T01:41:22;8.33;;;6.77;;
1366;SDS011;16877;48.810;9.282;2022-07-22T01:43:49;7.13;;;6.43;;
1366;SDS011;16877;48.810;9.282;2022-07-22T01:46:15;7.40;;;6.70;;
1366;SDS011;16877;48.810;9.282;2022-07-22T01:48:43;7.47;;;5.83;;
1366;SDS011;16877;48.810;9.282;2022-07-22T01:51:10;7.47;;;6.80;;
1366;SDS011;16877;48.810;9.282;2022-07-22T01:53:37;7.07;;;6.47;;
1366;SDS011;16877;48.810;9.282;2022-07-22T01:56:05;7.83;;;7.03;;
1366;SDS011;16877;48.810;9.282;2022-07-22T01:58:32;6.83;;;6.13;;
1366;SDS011;16877;48.810;9.282;2022-07-22T02:00:59;7.90;;;7.03;;
1366;SDS011;16877;48.810;9.282;2022-07-22T02:03:26;7.67;;;6.87;;
1366;SDS011;16877;48.810;9.282;2022-07-22T02:05:52;7.60;;;6.90;;
1366;SDS011;16877;48.810;9.282;2022-07-22T02:08:19;7.10;;;6.50;;
1366;SDS011;16877;48.810;9.282;2022-07-22T02:10:46;6.77;;;6.17;;
1366;SDS011;16877;48.810;9.282;2022-07-22T02:13:14;6.67;;;5.97;;
1366;SDS011;16877;48.810;9.282;2022-07-22T02:15:41;7.47;;;6.77;;
1366;SDS011;16877;48.810;9.282;2022-07-22T02:18:11;8.00;;;7.30;;
1366;SDS011;16877;48.810;9.282;2022-07-22T02:20:39;7.43;;;6.83;;
1366;SDS011;16877;48.810;9.282;2022-07-22T02:23:05;7.80;;;7.03;;
1366;SDS011;16877;48.810;9.282;2022-07-22T02:25:33;9.87;;;6.90;;
1366;SDS011;16877;48.810;9.282;2022-07-22T02:27:59;7.47;;;6.87;;
1366;SDS011;16877;48.810;9.282;2022-07-22T02:30:27;6.80;;;6.20;;
1366;SDS011;16877;48.810;9.282;2022-07-22T02:32:55;6.93;;;6.33;;
1366;SDS011;16877;48.810;9.282;2022-07-22T02:35:22;6.60;;;6.03;;
1366;SDS011;16877;48.810;9.282;2022-07-22T02:37:49;7.10;;;6.50;;
1366;SDS011;16877;48.810;9.282;2022-07-22T02:40:16;6.93;;;6.30;;
1366;SDS011;16877;48.810;9.282;2022-07-22T02:42:43;9.60;;;6.63;;
1366;SDS011;16877;48.810;9.282;2022-07-22T02:45:10;6.73;;;6.13;;
1366;SDS011;16877;48.810;9.282;2022-07-22T02:47:45;7.07;;;6.47;;
1366;SDS011;16877;48.810;9.282;2022-07-22T02:50:13;7.60;;;6.90;;
1366;SDS011;16877;48.810;9.282;2022-07-22T02:52:39;11.20;;;6.80;;
1366;SDS011;16877;48.810;9.282;2022-07-22T02:55:06;7.97;;;6.37;;
1366;SDS011;16877;48.810;9.282;2022-07-22T02:57:33;6.70;;;5.93;;
1366;SDS011;16877;48.810;9.282;2022-07-22T03:00:00;7.33;;;6.73;;
1366;SDS011;16877;48.810;9.282;2022-07-22T03:02:27;7.10;;;6.40;;
1366;SDS011;16877;48.810;9.282;2022-07-22T03:04:55;6.93;;;6.33;;
1366;SDS011;16877;48.810;9.282;2022-07-22T03:07:22;7.13;;;6.43;;
1366;SDS011;16877;48.810;9.282;2022-07-22T03:09:48;7.53;;;6.20;;
1366;SDS011;16877;48.810;9.282;2022-07-22T03:12:15;7.23;;;6.50;;
1366;SDS011;16877;48.810;9.282;2022-07-22T03:14:42;7.00;;;6.50;;
1366;SDS011;16877;48.810;9.282;2022-07-22T03:17:08;6.90;;;6.30;;
1366;SDS011;16877;48.810;9.282;2022-07-22T03:19:35;7.67;;;6.93;;
1366;SDS011;16877;48.810;9.282;2022-07-22T03:22:03;7.00;;;6.33;;
1366;SDS011;16877;48.810;9.282;2022-07-22T03:24:30;6.20;;;5.70;;
1366;SDS011;16877;48.810;9.282;2022-07-22T03:26:57;7.90;;;6.73;;
1366;SDS011;16877;48.810;9.282;2022-07-22T03:29:23;7.47;;;6.77;;
1366;SDS011;16877;48.810;9.282;2022-07-22T03:31:50;7.43;;;6.70;;
1366;SDS011;16877;48.810;9.282;2022-07-22T03:34:16;7.27;;;6.67;;
1366;SDS011;16877;48.810;9.282;2022-07-22T03:36:43;8.47;;;7.67;;
1366;SDS011;16877;48.810;9.282;2022-07-22T03:39:11;7.20;;;6.50;;
1366;SDS011;16877;48.810;9.282;2022-07-22T03:41:38;7.63;;;6.90;;
1366;SDS011;16877;48.810;9.282;2022-07-22T03:44:04;7.73;;;7.03;;
1366;SDS011;16877;48.810;9.282;2022-07-22T03:46:31;8.60;;;7.70;;
1366;SDS011;16877;48.810;9.282;2022-07-22T03:48:58;8.27;;;7.53;;
1366;SDS011;16877;48.810;9.282;2022-07-22T03:51:24;8.27;;;7.23;;
1366;SDS011;16877;48.810;9.282;2022-07-22T03:53:51;7.40;;;6.70;;
1366;SDS011;16877;48.810;9.282;2022-07-22T03:56:19;7.00;;;6.30;;
1366;SDS011;16877;48.810;9.282;2022-07-22T03:58:46;7.20;;;6.40;;
1366;SDS011;16877;48.810;9.282;2022-07-22T04:01:12;7.57;;;6.87;;
1366;SDS011;16877;48.810;9.282;2022-07-22T04:03:39;8.20;;;7.50;;
1366;SDS011;16877;48.810;9.282;2022-07-22T04:06:06;7.40;;;6.70;;
1366;SDS011;16877;48.810;9.282;2022-07-22T04:08:33;7.83;;;6.97;;
1366;SDS011;16877;48.810;9.282;2022-07-22T04:10:59;6.40;;;5.80;;
1366;SDS011;16877;48.810;9.282;2022-07-22T04:13:27;7.33;;;6.63;;
1366;SDS011;16877;48.810;9.282;2022-07-22T04:15:54;9.10;;;7.43;;
1366;SDS011;16877;48.810;9.282;2022-07-22T04:18:20;7.80;;;7.00;;
1366;SDS011;16877;48.810;9.282;2022-07-22T04:20:47;7.50;;;6.80;;
1366;SDS011;16877;48.810;9.282;2022-07-22T04:23:14;7.30;;;6.60;;
1366;SDS011;16877;48.810;9.282;2022-07-22T04:25:41;8.30;;;7.50;;
1366;SDS011;16877;48.810;9.282;2022-07-22T04:28:08;8.83;;;8.03;;
1366;SDS011;16877;48.810;9.282;2022-07-22T04:30:36;8.60;;;7.80;;
1366;SDS011;16877;48.810;9.282;2022-07-22T04:33:02;7.70;;;6.90;;
1366;SDS011;16877;48.810;9.282;2022-07-22T04:35:29;8.37;;;7.50;;
1366;SDS011;16877;48.810;9.282;2022-07-22T04:37:56;8.50;;;7.67;;
1366;SDS011;16877;48.810;9.282;2022-07-22T04:40:23;8.97;;;8.13;;
1366;SDS011;16877;48.810;9.282;2022-07-22T04:42:49;9.27;;;8.03;;
1366;SDS011;16877;48.810;9.282;2022-07-22T04:45:16;9.77;;;8.80;;
1366;SDS011;16877;48.810;9.282;2022-07-22T04:47:44;9.50;;;8.50;;
1366;SDS011;16877;48.810;9.282;2022-07-22T04:50:11;9.70;;;8.70;;
1366;SDS011;16877;48.810;9.282;2022-07-22T04:52:37;9.90;;;8.27;;
1366;SDS011;16877;48.810;9.282;2022-07-22T04:55:05;9.07;;;8.13;;
1366;SDS011;16877;48.810;9.282;2022-07-22T04:57:32;9.87;;;7.57;;
1366;SDS011;16877;48.810;9.282;2022-07-22T04:59:58;10.17;;;9.23;;
1366;SDS011;16877;48.810;9.282;2022-07-22T05:02:25;9.50;;;8.57;;
1366;SDS011;16877;48.810;9.282;2022-07-22T05:04:53;8.00;;;7.30;;
1366;SDS011;16877;48.810;9.282;2022-07-22T05:07:20;8.00;;;7.30;;
1366;SDS011;16877;48.810;9.282;2022-07-22T05:09:46;8.10;;;7.30;;
1366;SDS011;16877;48.810;9.282;2022-07-22T05:12:13;8.03;;;7.13;;
1366;SDS011;16877;48.810;9.282;2022-07-22T05:14:40;8.20;;;7.50;;
1366;SDS011;16877;48.810;9.282;2022-07-22T05:17:08;8.83;;;7.43;;
1366;SDS011;16877;48.810;9.282;2022-07-22T05:19:36;8.00;;;7.30;;
1366;SDS011;16877;48.810;9.282;2022-07-22T05:22:05;8.53;;;7.83;;
1366;SDS011;16877;48.810;9.282;2022-07-22T05:24:31;7.80;;;7.03;;
1366;SDS011;16877;48.810;9.282;2022-07-22T05:26:58;7.27;;;6.57;;
1366;SDS011;16877;48.810;9.282;2022-07-22T05:29:25;8.20;;;7.40;;
1366;SDS011;16877;48.810;9.282;2022-07-22T05:31:52;8.50;;;7.70;;
1366;SDS011;16877;48.810;9.282;2022-07-22T05:34:18;7.27;;;6.57;;
1366;SDS011;16877;48.810;9.282;2022-07-22T05:36:45;7.70;;;6.97;;
1366;SDS011;16877;48.810;9.282;2022-07-22T05:39:13;8.37;;;7.57;;
1366;SDS011;16877;48.810;9.282;2022-07-22T05:41:40;8.30;;;7.50;;
1366;SDS011;16877;48.810;9.282;2022-07-22T05:44:06;11.30;;;7.40;;
1366;SDS011;16877;48.810;9.282;2022-07-22T05:46:33;8.73;;;7.77;;
1366;SDS011;16877;48.810;9.282;2022-07-22T05:49:00;8.67;;;7.37;;
1366;SDS011;16877;48.810;9.282;2022-07-22T05:51:26;9.10;;;7.30;;
1366;SDS011;16877;48.810;9.282;2022-07-22T05:53:53;9.33;;;8.43;;
1366;SDS011;16877;48.810;9.282;2022-07-22T05:56:21;7.90;;;7.20;;
1366;SDS011;16877;48.810;9.282;2022-07-22T05:58:47;8.60;;;7.77;;
1366;SDS011;16877;48.810;9.282;2022-07-22T06:01:14;9.80;;;8.80;;
1366;SDS011;16877;48.810;9.282;2022-07-22T06:03:41;7.73;;;7.07;;
1366;SDS011;16877;48.810;9.282;2022-07-22T06:06:07;8.63;;;7.47;;
1366;SDS011;16877;48.810;9.282;2022-07-22T06:08:34;8.40;;;7.70;;
1366;SDS011;16877;48.810;9.282;2022-07-22T06:11:02;8.90;;;8.10;;
1366;SDS011;16877;48.810;9.282;2022-07-22T06:13:30;8.60;;;7.80;;
1366;SDS011;16877;48.810;9.282;2022-07-22T06:15:57;8.07;;;7.37;;
1366;SDS011;16877;48.810;9.282;2022-07-22T06:18:23;7.60;;;6.90;;
1366;SDS011;16877;48.810;9.282;2022-07-22T06:20:50;9.20;;;8.30;;
1366;SDS011;16877;48.810;9.282;2022-07-22T06:23:17;9.20;;;6.80;;
1366;SDS011;16877;48.810;9.282;2022-07-22T06:25:44;7.40;;;6.70;;
1366;SDS011;16877;48.810;9.282;2022-07-22T06:28:11;8.00;;;7.27;;
1366;SDS011;16877;48.810;9.282;2022-07-22T06:30:39;9.00;;;8.20;;
1366;SDS011;16877;48.810;9.282;2022-07-22T06:33:06;9.80;;;8.80;;
1366;SDS011;16877;48.810;9.282;2022-07-22T06:35:33;7.77;;;7.03;;
1366;SDS011;16877;48.810;9.282;2022-07-22T06:38:00;8.47;;;7.67;;
1366;SDS011;16877;48.810;9.282;2022-07-22T06:40:27;7.73;;;7.10;;
1366;SDS011;16877;48.810;9.282;2022-07-22T06:42:53;8.30;;;7.60;;
1366;SDS011;16877;48.810;9.282;2022-07-22T06:45:20;9.20;;;8.43;;
1366;SDS011;16877;48.810;9.282;2022-07-22T06:47:48;9.80;;;9.00;;
1366;SDS011;16877;48.810;9.282;2022-07-22T06:50:14;8.70;;;7.90;;
1366;SDS011;16877;48.810;9.282;2022-07-22T06:52:41;8.13;;;7.43;;
1366;SDS011;16877;48.810;9.282;2022-07-22T06:55:09;8.50;;;7.80;;
1366;SDS011;16877;48.810;9.282;2022-07-22T06:57:36;8.37;;;7.67;;
1366;SDS011;16877;48.810;9.282;2022-07-22T07:00:03;7.53;;;6.80;;
1366;SDS011;16877;48.810;9.282;2022-07-22T07:02:32;7.57;;;6.97;;
1366;SDS011;16877;48.810;9.282;2022-07-22T07:05:00;7.10;;;6.50;;
1366;SDS011;16877;48.810;9.282;2022-07-22T07:07:27;8.37;;;7.67;;
1366;SDS011;16877;48.810;9.282;2022-07-22T07:09:53;8.07;;;7.27;;
1366;SDS011;16877;48.810;9.282;2022-07-22T07:12:20;8.03;;;7.23;;
1366;SDS011;16877;48.810;9.282;2022-07-22T07:14:47;9.20;;;8.37;;
1366;SDS011;16877;48.810;9.282;2022-07-22T07:17:13;8.10;;;7.40;;
1366;SDS011;16877;48.810;9.282;2022-07-22T07:19:40;7.97;;;7.17;;
1366;SDS011;16877;48.810;9.282;2022-07-22T07:22:08;8.70;;;8.00;;
1366;SDS011;16877;48.810;9.282;2022-07-22T07:24:35;7.20;;;6.50;;
1366;SDS011;16877;48.810;9.282;2022-07-22T07:27:02;8.27;;;7.57;;
1366;SDS011;16877;48.810;9.282;2022-07-22T07:29:28;8.53;;;7.73;;
1366;SDS011;16877;48.810;9.282;2022-07-22T07:31:55;8.63;;;7.87;;
1366;SDS011;16877;48.810;9.282;2022-07-22T07:34:22;8.30;;;7.60;;
1366;SDS011;16877;48.810;9.282;2022-07-22T07:36:48;7.50;;;6.80;;
1366;SDS011;16877;48.810;9.282;2022-07-22T07:39:16;8.53;;;7.70;;
1366;SDS011;16877;48.810;9.282;2022-07-22T07:41:43;8.47;;;7.40;;
1366;SDS011;16877;48.810;9.282;2022-07-22T07:44:10;8.80;;;7.40;;
1366;SDS011;16877;48.810;9.282;2022-07-22T07:46:36;7.23;;;6.70;;
1366;SDS011;16877;48.810;9.282;2022-07-22T07:49:08;7.60;;;6.93;;
1366;SDS011;16877;48.810;9.282;2022-07-22T07:51:35;7.77;;;7.07;;
1366;SDS011;16877;48.810;9.282;2022-07-22T07:54:02;10.70;;;7.50;;
1366;SDS011;16877;48.810;9.282;2022-07-22T07:56:30;8.07;;;7.37;;
1366;SDS011;16877;48.810;9.282;2022-07-22T07:58:57;8.10;;;7.40;;
1366;SDS011;16877;48.810;9.282;2022-07-22T08:01:24;8.17;;;7.47;;
1366;SDS011;16877;48.810;9.282;2022-07-22T08:03:50;7.77;;;7.10;;
1366;SDS011;16877;48.810;9.282;2022-07-22T08:06:17;7.70;;;7.07;;
1366;SDS011;16877;48.810;9.282;2022-07-22T08:08:44;7.43;;;6.83;;
1366;SDS011;16877;48.810;9.282;2022-07-22T08:11:10;7.40;;;6.80;;
1366;SDS011;16877;48.810;9.282;2022-07-22T08:13:38;8.00;;;7.00;;
1366;SDS011;16877;48.810;9.282;2022-07-22T08:16:05;7.90;;;7.10;;
1366;SDS011;16877;48.810;9.282;2022-07-22T08:18:32;8.70;;;7.80;;
1366;SDS011;16877;48.810;9.282;2022-07-22T08:20:59;8.67;;;7.80;;
1366;SDS011;16877;48.810;9.282;2022-07-22T08:23:26;7.67;;;7.00;;
1366;SDS011;16877;48.810;9.282;2022-07-22T08:25:53;9.20;;;8.37;;
1366;SDS011;16877;48.810;9.282;2022-07-22T08:28:19;7.67;;;6.90;;
1366;SDS011;16877;48.810;9.282;2022-07-22T08:30:47;7.70;;;7.00;;
1366;SDS011;16877;48.810;9.282;2022-07-22T08:33:14;8.33;;;7.53;;
1366;SDS011;16877;48.810;9.282;2022-07-22T08:35:41;6.80;;;6.20;;
1366;SDS011;16877;48.810;9.282;2022-07-22T08:38:08;8.37;;;7.57;;
1366;SDS011;16877;48.810;9.282;2022-07-22T08:40:35;8.23;;;7.47;;
1366;SDS011;16877;48.810;9.282;2022-07-22T08:43:02;8.23;;;7.53;;
1366;SDS011;16877;48.810;9.282;2022-07-22T08:45:29;8.50;;;7.77;;
1366;SDS011;16877;48.810;9.282;2022-07-22T08:47:58;8.23;;;7.53;;
1366;SDS011;16877;48.810;9.282;2022-07-22T08:50:28;9.40;;;8.53;;
1366;SDS011;16877;48.810;9.282;2022-07-22T08:52:55;8.90;;;8.10;;
1366;SDS011;16877;48.810;9.282;2022-07-22T08:55:22;9.97;;;9.07;;
1366;SDS011;16877;48.810;9.282;2022-07-22T08:57:50;8.43;;;7.80;;
1366;SDS011;16877;48.810;9.282;2022-07-22T09:00:18;8.17;;;7.47;;
1366;SDS011;16877;48.810;9.282;2022-07-22T09:02:47;8.27;;;7.57;;
1366;SDS011;16877;48.810;9.282;2022-07-22T09:05:15;9.10;;;8.17;;
1366;SDS011;16877;48.810;9.282;2022-07-22T09:07:43;8.50;;;7.70;;
1366;SDS011;16877;48.810;9.282;2022-07-22T09:10:12;7.73;;;7.03;;
1366;SDS011;16877;48.810;9.282;2022-07-22T09:12:50;8.63;;;7.93;;
1366;SDS011;16877;48.810;9.282;2022-07-22T09:15:24;8.57;;;7.80;;
1366;SDS011;16877;48.810;9.282;2022-07-22T09:17:53;8.60;;;7.90;;
1366;SDS011;16877;48.810;9.282;2022-07-22T09:20:21;7.90;;;7.20;;
1366;SDS011;16877;48.810;9.282;2022-07-22T09:22:48;8.33;;;7.63;;
1366;SDS011;16877;48.810;9.282;2022-07-22T09:25:17;8.20;;;7.40;;
1366;SDS011;16877;48.810;9.282;2022-07-22T09:27:54;8.37;;;7.57;;
1366;SDS011;16877;48.810;9.282;2022-07-22T09:30:23;8.00;;;7.40;;
1366;SDS011;16877;48.810;9.282;2022-07-22T09:32:51;7.60;;;6.77;;
1366;SDS011;16877;48.810;9.282;2022-07-22T09:35:23;8.27;;;7.47;;
1366;SDS011;16877;48.810;9.282;2022-07-22T09:37:51;7.73;;;7.03;;
1366;SDS011;16877;48.810;9.282;2022-07-22T09:40:20;7.40;;;6.70;;
1366;SDS011;16877;48.810;9.282;2022-07-22T09:42:50;8.40;;;7.70;;
1366;SDS011;16877;48.810;9.282;2022-07-22T09:45:18;8.33;;;7.63;;
1366;SDS011;16877;48.810;9.282;2022-07-22T09:47:46;8.20;;;7.50;;
1366;SDS011;16877;48.810;9.282;2022-07-22T09:50:14;7.57;;;6.73;;
1366;SDS011;16877;48.810;9.282;2022-07-22T09:52:43;8.20;;;7.40;;
1366;SDS011;16877;48.810;9.282;2022-07-22T09:55:10;7.60;;;6.90;;
1366;SDS011;16877;48.810;9.282;2022-07-22T09:57:40;7.90;;;7.20;;
1366;SDS011;16877;48.810;9.282;2022-07-22T10:00:07;7.10;;;6.50;;
1366;SDS011;16877;48.810;9.282;2022-07-22T10:02:35;7.93;;;7.20;;
1366;SDS011;16877;48.810;9.282;2022-07-22T10:05:08;8.63;;;7.83;;
1366;SDS011;16877;48.810;9.282;2022-07-22T10:07:36;8.70;;;7.90;;
1366;SDS011;16877;48.810;9.282;2022-07-22T10:10:07;7.00;;;6.40;;
1366;SDS011;16877;48.810;9.282;2022-07-22T10:12:35;7.40;;;6.80;;
1366;SDS011;16877;48.810;9.282;2022-07-22T10:15:03;7.03;;;6.43;;
1366;SDS011;16877;48.810;9.282;2022-07-22T10:17:33;7.13;;;6.50;;
1366;SDS011;16877;48.810;9.282;2022-07-22T10:20:01;8.27;;;7.47;;
1366;SDS011;16877;48.810;9.282;2022-07-22T10:22:45;7.97;;;7.17;;
1366;SDS011;16877;48.810;9.282;2022-07-22T10:25:18;7.53;;;6.83;;
1366;SDS011;16877;48.810;9.282;2022-07-22T10:27:47;7.70;;;7.00;;
1366;SDS011;16877;48.810;9.282;2022-07-22T10:30:16;7.50;;;6.90;;
1366;SDS011;16877;48.810;9.282;2022-07-22T10:32:44;8.07;;;7.47;;
1366;SDS011;16877;48.810;9.282;2022-07-22T10:35:24;7.87;;;7.13;;
1366;SDS011;16877;48.810;9.282;2022-07-22T10:37:51;7.57;;;6.80;;
1366;SDS011;16877;48.810;9.282;2022-07-22T10:40:21;7.13;;;6.40;;
1366;SDS011;16877;48.810;9.282;2022-07-22T10:43:02;7.30;;;6.70;;
1366;SDS011;16877;48.810;9.282;2022-07-22T10:45:32;7.80;;;7.00;;
1366;SDS011;16877;48.810;9.282;2022-07-22T10:48:00;7.00;;;6.40;;
1366;SDS011;16877;48.810;9.282;2022-07-22T10:53:44;7.30;;;6.60;;
1366;SDS011;16877;48.810;9.282;2022-07-22T10:56:14;7.40;;;6.70;;
1366;SDS011;16877;48.810;9.282;2022-07-22T10:58:47;6.93;;;6.33;;
1366;SDS011;16877;48.810;9.282;2022-07-22T11:01:16;7.93;;;7.20;;
1366;SDS011;16877;48.810;9.282;2022-07-22T11:03:45;7.53;;;6.93;;
1366;SDS011;16877;48.810;9.282;2022-07-22T11:06:14;7.97;;;7.27;;
1366;SDS011;16877;48.810;9.282;2022-07-22T11:08:43;7.83;;;7.13;;
1366;SDS011;16877;48.810;9.282;2022-07-22T11:11:11;8.00;;;7.30;;
1366;SDS011;16877;48.810;9.282;2022-07-22T11:13:40;7.90;;;7.20;;
1366;SDS011;16877;48.810;9.282;2022-07-22T11:16:16;7.63;;;6.93;;
1366;SDS011;16877;48.810;9.282;2022-07-22T11:18:45;7.97;;;7.27;;
1366;SDS011;16877;48.810;9.282;2022-07-22T11:21:15;8.20;;;7.50;;
1366;SDS011;16877;48.810;9.282;2022-07-22T11:23:43;7.07;;;6.40;;
1366;SDS011;16877;48.810;9.282;2022-07-22T11:26:10;7.70;;;7.00;;
1366;SDS011;16877;48.810;9.282;2022-07-22T11:28:42;7.95;;;7.35;;
1366;SDS011;16877;48.810;9.282;2022-07-22T11:31:13;7.82;;;7.07;;
1366;SDS011;16877;48.810;9.282;2022-07-22T11:33:40;7.90;;;7.20;;
1366;SDS011;16877;48.810;9.282;2022-07-22T11:36:08;7.70;;;7.00;;
1366;SDS011;16877;48.810;9.282;2022-07-22T11:38:39;6.95;;;6.45;;
1366;SDS011;16877;48.810;9.282;2022-07-22T11:41:10;7.60;;;6.90;;
1366;SDS011;16877;48.810;9.282;2022-07-22T11:43:38;7.05;;;6.45;;
1366;SDS011;16877;48.810;9.282;2022-07-22T11:46:07;6.18;;;5.68;;
1366;SDS011;16877;48.810;9.282;2022-07-22T11:48:34;6.63;;;6.03;;
1366;SDS011;16877;48.810;9.282;2022-07-22T11:51:02;6.90;;;6.25;;
1366;SDS011;16877;48.810;9.282;2022-07-22T11:53:29;7.13;;;6.45;;
1366;SDS011;16877;48.810;9.282;2022-07-22T11:55:57;7.50;;;6.90;;
1366;SDS011;16877;48.810;9.282;2022-07-22T11:58:34;11.15;;;5.88;;
1366;SDS011;16877;48.810;9.282;2022-07-22T12:01:05;7.57;;;6.88;;
1366;SDS011;16877;48.810;9.282;2022-07-22T12:03:34;7.25;;;6.75;;
1366;SDS011;16877;48.810;9.282;2022-07-22T12:06:03;7.28;;;6.57;;
1366;SDS011;16877;48.810;9.282;2022-07-22T12:08:32;6.75;;;5.97;;
1366;SDS011;16877;48.810;9.282;2022-07-22T12:11:00;6.80;;;6.20;;
1366;SDS011;16877;48.810;9.282;2022-07-22T12:13:28;6.60;;;6.10;;
1366;SDS011;16877;48.810;9.282;2022-07-22T12:15:56;6.75;;;6.25;;
1366;SDS011;16877;48.810;9.282;2022-07-22T12:18:25;6.38;;;5.88;;
1366;SDS011;16877;48.810;9.282;2022-07-22T12:20:54;7.88;;;7.18;;
1366;SDS011;16877;48.810;9.282;2022-07-22T12:23:22;6.80;;;6.20;;
1366;SDS011;16877;48.810;9.282;2022-07-22T12:25:55;7.32;;;6.63;;
1366;SDS011;16877;48.810;9.282;2022-07-22T12:28:23;7.25;;;6.65;;
1366;SDS011;16877;48.810;9.282;2022-07-22T12:30:51;7.35;;;6.15;;
1366;SDS011;16877;48.810;9.282;2022-07-22T12:33:20;7.20;;;6.60;;
1366;SDS011;16877;48.810;9.282;2022-07-22T12:35:59;9.77;;;6.60;;
1366;SDS011;16877;48.810;9.282;2022-07-22T12:38:28;6.68;;;6.07;;
1366;SDS011;16877;48.810;9.282;2022-07-22T12:40:55;7.20;;;6.53;;
1366;SDS011;16877;48.810;9.282;2022-07-22T12:43:25;7.03;;;6.35;;
1366;SDS011;16877;48.810;9.282;2022-07-22T12:45:52;7.25;;;6.60;;
1366;SDS011;16877;48.810;9.282;2022-07-22T12:48:19;7.47;;;6.60;;
1366;SDS011;16877;48.810;9.282;2022-07-22T12:50:54;5.38;;;4.88;;
1366;SDS011;16877;48.810;9.282;2022-07-22T12:53:24;7.22;;;6.53;;
1366;SDS011;16877;48.810;9.282;2022-07-22T12:55:55;8.73;;;6.40;;
1366;SDS011;16877;48.810;9.282;2022-07-22T12:58:24;6.68;;;6.03;;
1366;SDS011;16877;48.810;9.282;2022-07-22T13:00:53;7.03;;;6.43;;
1366;SDS011;16877;48.810;9.282;2022-07-22T13:03:21;6.10;;;5.60;;
1366;SDS011;16877;48.810;9.282;2022-07-22T13:05:51;6.72;;;6.13;;
1366;SDS011;16877;48.810;9.282;2022-07-22T13:08:19;6.78;;;6.18;;
1366;SDS011;16877;48.810;9.282;2022-07-22T13:10:48;6.80;;;6.20;;
1366;SDS011;16877;48.810;9.282;2022-07-22T13:13:15;6.47;;;5.32;;
1366;SDS011;16877;48.810;9.282;2022-07-22T13:15:41;6.30;;;5.70;;
1366;SDS011;16877;48.810;9.282;2022-07-22T13:18:08;6.53;;;6.03;;
1366;SDS011;16877;48.810;9.282;2022-07-22T13:20:35;6.32;;;5.47;;
1366;SDS011;16877;48.810;9.282;2022-07-22T13:23:02;6.20;;;5.70;;
1366;SDS011;16877;48.810;9.282;2022-07-22T13:25:29;7.88;;;7.18;;
1366;SDS011;16877;48.810;9.282;2022-07-22T13:27:57;7.10;;;5.75;;
1366;SDS011;16877;48.810;9.282;2022-07-22T13:30:23;5.40;;;4.88;;
1366;SDS011;16877;48.810;9.282;2022-07-22T13:32:50;6.13;;;5.63;;
1366;SDS011;16877;48.810;9.282;2022-07-22T13:35:17;6.00;;;5.40;;
1366;SDS011;16877;48.810;9.282;2022-07-22T13:37:44;6.38;;;5.85;;
1366;SDS011;16877;48.810;9.282;2022-07-22T13:40:12;6.75;;;5.45;;
1366;SDS011;16877;48.810;9.282;2022-07-22T13:42:39;5.93;;;5.32;;
1366;SDS011;16877;48.810;9.282;2022-07-22T13:45:08;6.40;;;5.80;;
1366;SDS011;16877;48.810;9.282;2022-07-22T13:47:36;5.97;;;5.22;;
1366;SDS011;16877;48.810;9.282;2022-07-22T13:50:05;5.45;;;4.95;;
1366;SDS011;16877;48.810;9.282;2022-07-22T13:52:32;6.30;;;5.80;;
1366;SDS011;16877;48.810;9.282;2022-07-22T13:54:59;6.05;;;5.55;;
1366;SDS011;16877;48.810;9.282;2022-07-22T13:57:26;6.70;;;6.10;;
1366;SDS011;16877;48.810;9.282;2022-07-22T13:59:53;6.20;;;5.65;;
1366;SDS011;16877;48.810;9.282;2022-07-22T14:02:22;5.70;;;5.20;;
1366;SDS011;16877;48.810;9.282;2022-07-22T14:04:49;6.10;;;5.50;;
1366;SDS011;16877;48.810;9.282;2022-07-22T14:07:15;6.10;;;5.43;;
1366;SDS011;16877;48.810;9.282;2022-07-22T14:09:42;6.38;;;5.78;;
1366;SDS011;16877;48.810;9.282;2022-07-22T14:12:09;7.70;;;5.95;;
1366;SDS011;16877;48.810;9.282;2022-07-22T14:14:35;5.80;;;5.30;;
1366;SDS011;16877;48.810;9.282;2022-07-22T14:17:02;6.45;;;5.85;;
1366;SDS011;16877;48.810;9.282;2022-07-22T14:19:30;5.75;;;5.25;;
1366;SDS011;16877;48.810;9.282;2022-07-22T14:21:57;6.00;;;5.50;;
1366;SDS011;16877;48.810;9.282;2022-07-22T14:24:24;4.95;;;4.53;;
1366;SDS011;16877;48.810;9.282;2022-07-22T14:26:51;6.22;;;5.72;;
1366;SDS011;16877;48.810;9.282;2022-07-22T14:29:18;6.45;;;5.95;;
1366;SDS011;16877;48.810;9.282;2022-07-22T14:31:46;6.32;;;5.60;;
1366;SDS011;16877;48.810;9.282;2022-07-22T14:34:13;6.32;;;5.82;;
1366;SDS011;16877;48.810;9.282;2022-07-22T14:36:41;5.93;;;5.43;;
1366;SDS011;16877;48.810;9.282;2022-07-22T14:39:08;9.00;;;6.00;;
1366;SDS011;16877;48.810;9.282;2022-07-22T14:41:35;6.03;;;5.45;;
1366;SDS011;16877;48.810;9.282;2022-07-22T14:44:02;8.27;;;5.35;;
1366;SDS011;16877;48.810;9.282;2022-07-22T14:46:29;5.80;;;5.30;;
1366;SDS011;16877;48.810;9.282;2022-07-22T14:48:55;6.45;;;5.90;;
1366;SDS011;16877;48.810;9.282;2022-07-22T14:51:22;5.78;;;5.28;;
1366;SDS011;16877;48.810;9.282;2022-07-22T14:53:50;6.10;;;5.57;;
1366;SDS011;16877;48.810;9.282;2022-07-22T14:56:17;5.38;;;4.88;;
1366;SDS011;16877;48.810;9.282;2022-07-22T14:58:44;7.28;;;5.28;;
1366;SDS011;16877;48.810;9.282;2022-07-22T15:01:11;6.50;;;5.90;;
1366;SDS011;16877;48.810;9.282;2022-07-22T15:03:38;5.88;;;5.28;;
1366;SDS011;16877;48.810;9.282;2022-07-22T15:06:05;5.45;;;5.05;;